Time;durP1;ratioP1;P1;durP2;ratioP2;P2;SDS_P1;SDS_P2;PMS_P1;PMS_P2;Temp;Humidity;BMP_temperature;BMP_pressure;BME280_temperature;BME280_humidity;BME280_pressure;Samples;Min_cycle;Max_cycle;Signal;HPM_P1;HPM_P2
2021/04/19 00:02:23;;;;;;;66.60;30.30;;;4.70;99.90;;;;;;5065850;28;20318;-66
2021/04/19 00:04:50;;;;;;;53.67;29.67;;;4.70;99.90;;;;;;5066348;28;20261;-67
2021/04/19 00:07:19;;;;;;;63.37;30.30;;;4.70;99.90;;;;;;5074886;28;20196;-67
2021/04/19 00:09:47;;;;;;;63.97;30.63;;;4.70;99.90;;;;;;5067406;28;20212;-67
2021/04/19 00:12:14;;;;;;;67.13;30.70;;;4.70;99.90;;;;;;5064446;28;20739;-67
2021/04/19 00:14:41;;;;;;;68.30;30.53;;;4.70;99.90;;;;;;5070895;28;20219;-67
2021/04/19 00:17:09;;;;;;;62.90;31.40;;;4.70;99.90;;;;;;5067918;28;20631;-67
2021/04/19 00:19:40;;;;;;;61.53;30.73;;;4.70;99.90;;;;;;5067172;28;20331;-67
2021/04/19 00:22:07;;;;;;;67.30;30.93;;;4.60;99.90;;;;;;5070311;28;20725;-66
2021/04/19 00:24:35;;;;;;;83.93;32.83;;;4.60;99.90;;;;;;5070461;28;20695;-67
2021/04/19 00:27:03;;;;;;;70.07;32.63;;;4.60;99.90;;;;;;5067959;28;20256;-67
2021/04/19 00:29:31;;;;;;;69.03;31.50;;;4.60;99.90;;;;;;5071379;28;20235;-67
2021/04/19 00:31:58;;;;;;;70.67;32.53;;;4.60;99.90;;;;;;5065468;28;20231;-66
2021/04/19 00:34:26;;;;;;;65.33;30.63;;;4.60;99.90;;;;;;5061872;28;20200;-67
2021/04/19 00:36:53;;;;;;;66.37;31.43;;;4.50;99.90;;;;;;5072068;28;20199;-67
2021/04/19 00:39:21;;;;;;;64.60;29.43;;;4.40;99.90;;;;;;5078693;28;20816;-67
2021/04/19 00:41:50;;;;;;;61.23;29.93;;;4.30;99.90;;;;;;5068744;28;20266;-66
2021/04/19 00:44:18;;;;;;;69.50;31.23;;;4.20;99.90;;;;;;5066376;28;20224;-67
2021/04/19 00:46:47;;;;;;;68.33;30.73;;;4.20;99.90;;;;;;5077159;28;20279;-67
2021/04/19 00:49:15;;;;;;;61.07;31.17;;;4.10;99.90;;;;;;5066668;28;20189;-67
2021/04/19 00:51:42;;;;;;;63.37;31.43;;;4.10;99.90;;;;;;5074073;28;20265;-67
2021/04/19 00:54:11;;;;;;;64.13;31.70;;;4.00;99.90;;;;;;5065728;28;20200;-66
2021/04/19 00:56:39;;;;;;;74.77;32.20;;;4.00;99.90;;;;;;5068757;28;20695;-67
2021/04/19 00:59:08;;;;;;;74.30;32.90;;;4.00;99.90;;;;;;5061867;28;20224;-67
2021/04/19 01:01:35;;;;;;;74.47;33.03;;;4.00;99.90;;;;;;5058657;28;20192;-67
2021/04/19 01:04:03;;;;;;;77.40;33.53;;;4.00;99.90;;;;;;5064723;28;20204;-67
2021/04/19 01:06:31;;;;;;;78.00;32.30;;;4.00;99.90;;;;;;5058659;28;20200;-67
2021/04/19 01:08:58;;;;;;;68.93;32.27;;;4.00;99.90;;;;;;5066023;28;20671;-67
2021/04/19 01:11:25;;;;;;;71.00;31.60;;;4.00;99.90;;;;;;5066965;28;20183;-67
2021/04/19 01:13:52;;;;;;;76.00;32.10;;;3.90;99.90;;;;;;5069348;28;20329;-67
2021/04/19 01:16:22;;;;;;;82.43;34.13;;;4.00;99.90;;;;;;5075169;28;20227;-67
2021/04/19 01:18:49;;;;;;;83.73;34.40;;;4.00;99.90;;;;;;5063147;28;20219;-66
2021/04/19 01:21:18;;;;;;;86.37;35.37;;;4.00;99.90;;;;;;5065473;28;20258;-67
2021/04/19 01:23:45;;;;;;;70.97;34.23;;;4.10;99.90;;;;;;5056673;28;20196;-67
2021/04/19 01:26:13;;;;;;;75.27;34.03;;;4.10;99.90;;;;;;5062543;28;20196;-67
2021/04/19 01:28:56;;;;;;;70.90;32.70;;;4.10;99.90;;;;;;5062474;28;20658;-67
2021/04/19 01:31:23;;;;;;;82.43;33.43;;;4.10;99.90;;;;;;5063495;28;20559;-67
2021/04/19 01:33:51;;;;;;;72.27;34.33;;;4.10;99.90;;;;;;5070211;28;20203;-67
2021/04/19 01:36:19;;;;;;;73.63;34.63;;;4.00;99.90;;;;;;5064346;28;20844;-67
2021/04/19 01:38:47;;;;;;;100.07;35.93;;;4.00;99.90;;;;;;5060956;28;20682;-67
2021/04/19 01:41:14;;;;;;;83.30;34.80;;;4.00;99.90;;;;;;5075590;28;20184;-67
2021/04/19 01:43:41;;;;;;;81.20;35.30;;;4.00;99.90;;;;;;5072444;28;20667;-67
2021/04/19 01:46:08;;;;;;;83.87;34.23;;;4.00;99.90;;;;;;5071158;28;20198;-67
2021/04/19 01:48:36;;;;;;;87.23;36.13;;;3.90;99.90;;;;;;5060569;28;20216;-67
2021/04/19 01:51:05;;;;;;;78.10;34.03;;;3.90;99.90;;;;;;5060845;28;20717;-67
2021/04/19 01:53:33;;;;;;;76.40;33.40;;;3.90;99.90;;;;;;5063375;28;20230;-67
2021/04/19 01:56:00;;;;;;;77.00;34.63;;;3.90;99.90;;;;;;5064210;28;20192;-66
2021/04/19 01:58:28;;;;;;;76.83;34.53;;;3.80;99.90;;;;;;5056849;28;20652;-67
2021/04/19 02:00:58;;;;;;;87.63;35.83;;;3.90;99.90;;;;;;5064246;28;20662;-67
2021/04/19 02:03:46;;;;;;;81.50;34.63;;;3.90;99.90;;;;;;5062984;28;20230;-66
2021/04/19 02:06:21;;;;;;;87.40;36.67;;;3.90;99.90;;;;;;5062175;28;20732;-67
2021/04/19 02:09:01;;;;;;;81.77;35.97;;;4.00;99.90;;;;;;5065740;28;20313;-66
2021/04/19 02:11:40;;;;;;;85.37;34.90;;;4.10;99.90;;;;;;5071383;28;20191;-67
2021/04/19 02:14:17;;;;;;;75.90;34.43;;;4.10;99.90;;;;;;5072007;28;20654;-67
2021/04/19 02:16:48;;;;;;;86.90;36.97;;;4.10;99.90;;;;;;5069639;28;20350;-67
2021/04/19 02:19:20;;;;;;;86.77;35.73;;;4.10;99.90;;;;;;5066450;28;20902;-67
2021/04/19 02:21:52;;;;;;;85.63;36.83;;;4.00;99.90;;;;;;5061561;28;20770;-66
2021/04/19 02:24:23;;;;;;;94.20;37.87;;;4.00;99.90;;;;;;5069644;28;20253;-67
2021/04/19 02:26:55;;;;;;;81.23;34.97;;;3.90;99.90;;;;;;5072822;28;20191;-66
2021/04/19 02:29:29;;;;;;;85.90;34.70;;;3.90;99.90;;;;;;5068421;28;20224;-67
2021/04/19 02:32:00;;;;;;;92.33;37.50;;;3.80;99.90;;;;;;5071076;28;20195;-67
2021/04/19 02:34:30;;;;;;;90.73;38.30;;;3.80;99.90;;;;;;5067317;28;20292;-67
2021/04/19 02:36:58;;;;;;;85.07;37.07;;;3.80;99.90;;;;;;5067013;28;20237;-67
2021/04/19 02:39:29;;;;;;;81.70;35.17;;;3.80;99.90;;;;;;5065869;28;20250;-67
2021/04/19 02:41:57;;;;;;;98.07;37.53;;;3.70;99.90;;;;;;5064849;28;20278;-67
2021/04/19 02:44:26;;;;;;;77.77;36.00;;;3.70;99.90;;;;;;5076315;28;20192;-68
2021/04/19 02:46:56;;;;;;;93.57;37.77;;;3.80;99.90;;;;;;5047556;28;20177;-67
2021/04/19 02:49:27;;;;;;;92.77;37.00;;;3.80;99.90;;;;;;5069118;28;20662;-67
2021/04/19 02:51:56;;;;;;;88.30;36.60;;;3.80;99.90;;;;;;5066071;28;20188;-67
2021/04/19 02:54:24;;;;;;;90.70;37.57;;;3.80;99.90;;;;;;5070588;28;20674;-67
2021/04/19 02:56:54;;;;;;;87.00;38.40;;;3.70;99.90;;;;;;5071192;28;20271;-65
2021/04/19 02:59:24;;;;;;;96.33;37.67;;;3.80;99.90;;;;;;5066109;28;20288;-67
2021/04/19 03:01:56;;;;;;;86.67;38.13;;;3.80;99.90;;;;;;5065423;28;20664;-67
2021/04/19 03:04:30;;;;;;;104.70;44.17;;;3.80;99.90;;;;;;5070068;28;20230;-67
2021/04/19 03:07:02;;;;;;;115.90;49.70;;;3.80;99.90;;;;;;5066324;28;20290;-67
2021/04/19 03:09:29;;;;;;;120.53;50.23;;;3.80;99.90;;;;;;5069285;28;20297;-67
2021/04/19 03:12:00;;;;;;;123.07;50.97;;;3.70;99.90;;;;;;5067131;28;20285;-66
2021/04/19 03:14:33;;;;;;;110.60;47.53;;;3.80;99.90;;;;;;5069180;28;20439;-67
2021/04/19 03:17:03;;;;;;;108.07;43.40;;;3.90;99.90;;;;;;5068753;28;20260;-67
2021/04/19 03:19:33;;;;;;;101.20;40.40;;;3.90;99.90;;;;;;5069556;28;20231;-67
2021/04/19 03:22:03;;;;;;;108.90;42.97;;;4.00;99.90;;;;;;5068557;28;20192;-67
2021/04/19 03:24:33;;;;;;;127.23;41.23;;;4.10;99.90;;;;;;5065028;28;20666;-67
2021/04/19 03:27:03;;;;;;;107.80;41.67;;;4.20;99.90;;;;;;5064906;28;20241;-67
2021/04/19 03:29:32;;;;;;;110.13;41.83;;;4.20;99.90;;;;;;5071182;28;20291;-67
2021/04/19 03:32:05;;;;;;;134.50;43.90;;;4.30;99.90;;;;;;5064204;28;20203;-67
2021/04/19 03:34:35;;;;;;;123.77;42.43;;;4.40;99.90;;;;;;5066644;28;20200;-67
2021/04/19 03:37:06;;;;;;;117.43;38.30;;;4.40;99.90;;;;;;5063281;28;20228;-67
2021/04/19 03:39:35;;;;;;;116.50;40.77;;;4.50;99.90;;;;;;5063197;28;20208;-67
2021/04/19 03:42:05;;;;;;;122.67;39.60;;;4.60;99.90;;;;;;5067539;28;20280;-67
2021/04/19 03:44:38;;;;;;;155.43;41.90;;;4.60;99.90;;;;;;5067428;28;20231;-67
2021/04/19 03:47:06;;;;;;;124.07;36.50;;;4.60;99.90;;;;;;5071221;28;20294;-67
2021/04/19 03:49:37;;;;;;;122.10;38.10;;;4.70;99.90;;;;;;5068766;28;20192;-67
2021/04/19 03:52:10;;;;;;;134.00;38.10;;;4.70;99.90;;;;;;5070195;28;20339;-67
2021/04/19 03:54:43;;;;;;;144.07;36.30;;;4.70;99.90;;;;;;5084473;28;20613;-67
2021/04/19 03:57:16;;;;;;;127.53;35.73;;;4.80;99.90;;;;;;5069021;28;20253;-67
2021/04/19 03:59:46;;;;;;;135.00;36.10;;;4.80;99.90;;;;;;5071390;28;20693;-67
2021/04/19 04:02:15;;;;;;;147.13;35.03;;;4.80;99.90;;;;;;5065015;28;20188;-67
2021/04/19 04:04:45;;;;;;;111.30;33.70;;;4.90;99.90;;;;;;5067254;28;20864;-67
2021/04/19 04:07:14;;;;;;;127.50;34.20;;;4.90;99.90;;;;;;5063353;28;20275;-66
2021/04/19 04:09:43;;;;;;;122.63;35.13;;;4.90;99.90;;;;;;5068104;28;20188;-67
2021/04/19 04:12:13;;;;;;;118.70;34.13;;;5.00;99.90;;;;;;5065585;28;20196;-67
2021/04/19 04:14:50;;;;;;;114.03;32.03;;;5.00;99.90;;;;;;5073048;28;20196;-67
2021/04/19 04:17:17;;;;;;;120.50;31.17;;;5.00;99.90;;;;;;5066494;28;20232;-67
2021/04/19 04:19:45;;;;;;;109.67;31.10;;;5.00;99.90;;;;;;5071533;28;20616;-67
2021/04/19 04:22:13;;;;;;;122.63;31.77;;;5.10;99.90;;;;;;5070489;28;20280;-67
2021/04/19 04:24:41;;;;;;;126.27;31.70;;;5.10;99.90;;;;;;5065548;28;20188;-66
2021/04/19 04:27:09;;;;;;;123.27;29.33;;;5.20;99.90;;;;;;5064803;28;20192;-67
2021/04/19 04:29:37;;;;;;;141.03;31.97;;;5.20;99.90;;;;;;5066134;28;20623;-67
2021/04/19 04:32:06;;;;;;;151.03;31.23;;;5.20;99.90;;;;;;5064930;28;20752;-66
2021/04/19 04:34:34;;;;;;;181.60;32.97;;;5.20;99.90;;;;;;5068699;28;20295;-67
2021/04/19 04:37:02;;;;;;;130.80;31.10;;;5.20;99.90;;;;;;5065167;28;20283;-66
2021/04/19 04:39:29;;;;;;;143.43;32.73;;;5.20;99.90;;;;;;5065215;28;20628;-67
2021/04/19 04:41:57;;;;;;;131.57;32.10;;;5.30;99.90;;;;;;5067343;28;20291;-65
2021/04/19 04:44:30;;;;;;;160.57;34.10;;;5.30;99.90;;;;;;5070745;28;20648;-67
2021/04/19 04:47:08;;;;;;;136.07;33.50;;;5.30;99.90;;;;;;5065786;28;20200;-66
2021/04/19 04:49:42;;;;;;;128.17;31.77;;;5.30;99.90;;;;;;5063257;28;20188;-67
2021/04/19 04:52:12;;;;;;;146.27;33.70;;;5.40;99.90;;;;;;5060227;28;20288;-66
2021/04/19 04:54:44;;;;;;;122.67;32.50;;;5.40;99.90;;;;;;5060885;28;20279;-67
2021/04/19 04:57:15;;;;;;;131.67;33.03;;;5.40;99.90;;;;;;5059662;28;20196;-67
2021/04/19 04:59:44;;;;;;;116.87;33.50;;;5.40;99.90;;;;;;5060043;28;20212;-67
2021/04/19 05:02:13;;;;;;;142.37;35.80;;;5.50;99.90;;;;;;5060313;28;20196;-67
2021/04/19 05:04:41;;;;;;;159.37;37.73;;;5.50;99.90;;;;;;5061306;28;20227;-67
2021/04/19 05:07:08;;;;;;;141.57;39.57;;;5.50;99.90;;;;;;5067028;28;20238;-67
2021/04/19 05:09:37;;;;;;;179.40;44.30;;;5.50;99.90;;;;;;5067586;28;20192;-67
2021/04/19 05:12:05;;;;;;;131.17;38.23;;;5.60;99.90;;;;;;5073927;28;20190;-67
2021/04/19 05:14:34;;;;;;;130.67;38.00;;;5.60;99.90;;;;;;5065436;28;20213;-67
2021/04/19 05:17:01;;;;;;;140.50;39.47;;;5.60;99.90;;;;;;5064992;28;20254;-67
2021/04/19 05:19:30;;;;;;;157.53;40.60;;;5.60;99.90;;;;;;5065967;28;20222;-67
2021/04/19 05:21:59;;;;;;;139.93;38.97;;;5.70;99.90;;;;;;5065028;28;20250;-67
2021/04/19 05:24:26;;;;;;;136.03;37.47;;;5.70;99.90;;;;;;5073811;28;20195;-67
2021/04/19 05:26:53;;;;;;;137.73;37.10;;;5.80;99.90;;;;;;5068079;28;20712;-67
2021/04/19 05:29:21;;;;;;;122.77;35.20;;;5.80;99.90;;;;;;5062107;28;20293;-66
2021/04/19 05:31:49;;;;;;;127.00;37.40;;;5.80;99.90;;;;;;5064085;28;20258;-67
2021/04/19 05:34:16;;;;;;;119.93;36.60;;;5.80;99.90;;;;;;5063211;28;20250;-67
2021/04/19 05:36:45;;;;;;;146.30;39.77;;;5.80;99.90;;;;;;5067311;28;20196;-67
2021/04/19 05:39:14;;;;;;;117.63;35.83;;;5.90;99.90;;;;;;5061384;28;20204;-66
2021/04/19 05:41:41;;;;;;;125.87;38.93;;;5.90;99.90;;;;;;5062016;28;20224;-67
2021/04/19 05:44:09;;;;;;;121.70;36.63;;;5.90;99.90;;;;;;5061369;28;20308;-67
2021/04/19 05:46:37;;;;;;;123.33;39.07;;;5.90;99.90;;;;;;5060134;28;20204;-67
2021/04/19 05:49:05;;;;;;;107.20;37.07;;;6.00;99.90;;;;;;5065301;28;20339;-67
2021/04/19 05:51:36;;;;;;;103.37;37.03;;;6.00;99.90;;;;;;5063774;28;20613;-67
2021/04/19 05:54:04;;;;;;;113.77;40.57;;;6.00;99.90;;;;;;5060654;28;20196;-66
2021/04/19 05:56:43;;;;;;;104.67;35.70;;;6.10;99.90;;;;;;5063485;28;20223;-67
2021/04/19 05:59:14;;;;;;;106.63;36.33;;;6.10;99.90;;;;;;5060931;28;20566;-67
2021/04/19 06:01:44;;;;;;;100.37;36.77;;;6.10;99.90;;;;;;5066364;28;20200;-67
2021/04/19 06:04:21;;;;;;;104.77;36.87;;;6.20;99.90;;;;;;5069815;28;20719;-67
2021/04/19 06:06:57;;;;;;;94.33;36.40;;;6.30;99.90;;;;;;5067460;28;20204;-67
2021/04/19 06:09:30;;;;;;;88.13;35.87;;;6.30;99.90;;;;;;5072104;28;20192;-67
2021/04/19 06:12:02;;;;;;;102.00;37.50;;;6.30;99.90;;;;;;5069986;28;20195;-67
2021/04/19 06:14:33;;;;;;;89.00;35.37;;;6.30;99.90;;;;;;5068231;28;20611;-67
2021/04/19 06:17:02;;;;;;;91.43;34.83;;;6.40;99.90;;;;;;5064234;28;20224;-67
2021/04/19 06:19:35;;;;;;;88.13;35.93;;;6.40;99.90;;;;;;5067181;28;20299;-67
2021/04/19 06:22:02;;;;;;;74.80;34.63;;;6.40;99.90;;;;;;5073211;28;20200;-67
2021/04/19 06:24:32;;;;;;;84.83;35.03;;;6.40;99.90;;;;;;5062772;28;20188;-67
2021/04/19 06:26:59;;;;;;;78.63;34.67;;;6.60;99.90;;;;;;5056363;28;20227;-66
2021/04/19 06:29:28;;;;;;;78.73;33.70;;;6.60;99.90;;;;;;5059870;28;20277;-67
2021/04/19 06:31:58;;;;;;;80.20;34.63;;;6.70;99.90;;;;;;5060974;28;20227;-67
2021/04/19 06:34:26;;;;;;;74.63;33.03;;;6.70;99.90;;;;;;5061691;28;20211;-68
2021/04/19 06:36:53;;;;;;;77.63;34.20;;;6.80;99.90;;;;;;5055497;28;20647;-66
2021/04/19 06:39:21;;;;;;;66.33;31.27;;;6.90;99.90;;;;;;5061034;28;20212;-67
2021/04/19 06:41:51;;;;;;;63.20;30.87;;;7.00;99.90;;;;;;5060233;28;20735;-66
2021/04/19 06:44:19;;;;;;;69.27;32.00;;;7.00;99.90;;;;;;5060230;28;20628;-67
2021/04/19 06:46:47;;;;;;;62.43;30.90;;;7.00;99.90;;;;;;5056236;28;20220;-67
2021/04/19 06:49:15;;;;;;;67.63;30.87;;;7.20;99.90;;;;;;5062196;28;20274;-67
2021/04/19 06:51:43;;;;;;;64.60;29.07;;;7.30;99.90;;;;;;5056510;28;20283;-67
2021/04/19 06:54:12;;;;;;;62.47;30.27;;;7.40;99.90;;;;;;5062110;28;20711;-67
2021/04/19 06:56:42;;;;;;;61.17;29.77;;;7.50;99.90;;;;;;5076096;28;20200;-67
2021/04/19 06:59:13;;;;;;;59.47;29.10;;;7.70;99.90;;;;;;5069018;28;20220;-67
2021/04/19 07:01:44;;;;;;;56.90;28.27;;;7.90;99.90;;;;;;5055254;28;20188;-67
2021/04/19 07:04:13;;;;;;;57.93;27.37;;;8.00;99.90;;;;;;5068894;28;20201;-67
2021/04/19 07:06:41;;;;;;;58.70;28.00;;;8.00;99.90;;;;;;5068499;28;20713;-66
2021/04/19 07:09:17;;;;;;;55.23;27.73;;;8.10;99.90;;;;;;5065015;28;22497;-67
2021/04/19 07:11:46;;;;;;;52.17;25.97;;;8.20;99.90;;;;;;5069651;28;20203;-67
2021/04/19 07:14:17;;;;;;;48.67;26.23;;;8.20;99.90;;;;;;5064663;28;20196;-67
2021/04/19 07:16:44;;;;;;;57.57;26.60;;;8.40;99.90;;;;;;5065585;28;20224;-67
2021/04/19 07:19:12;;;;;;;49.27;25.50;;;8.50;99.90;;;;;;5056205;28;20783;-66
2021/04/19 07:21:40;;;;;;;54.27;27.03;;;8.70;99.90;;;;;;5072537;28;20205;-66
2021/04/19 07:24:08;;;;;;;55.07;26.63;;;9.00;99.90;;;;;;5065728;28;20262;-66
2021/04/19 07:26:37;;;;;;;48.40;25.53;;;9.50;99.90;;;;;;5071811;28;20199;-66
2021/04/19 07:29:05;;;;;;;44.30;22.67;;;10.20;99.90;;;;;;5067981;28;20196;-65
2021/04/19 07:31:48;;;;;;;45.90;24.60;;;10.40;99.90;;;;;;5065954;28;20663;-67
2021/04/19 07:34:17;;;;;;;43.97;24.10;;;10.70;99.90;;;;;;5064647;28;20196;-66
2021/04/19 07:36:49;;;;;;;42.03;24.47;;;11.20;99.90;;;;;;5060708;28;20207;-66
2021/04/19 07:39:20;;;;;;;37.13;21.87;;;12.00;99.90;;;;;;5059356;28;20273;-66
2021/04/19 07:41:50;;;;;;;42.10;23.90;;;12.70;99.90;;;;;;5065740;28;20254;-67
2021/04/19 07:44:35;;;;;;;40.83;22.40;;;12.80;99.90;;;;;;5065784;28;20246;-66
2021/04/19 07:47:29;;;;;;;42.20;23.17;;;12.70;99.90;;;;;;5066018;28;20609;-67
2021/04/19 07:50:04;;;;;;;38.23;22.43;;;12.30;99.90;;;;;;5071663;28;20196;-67
2021/04/19 07:52:35;;;;;;;41.17;21.17;;;12.50;99.90;;;;;;5069924;28;20179;-67
2021/04/19 07:55:11;;;;;;;35.20;19.80;;;12.80;99.90;;;;;;5078797;28;20188;-66
2021/04/19 07:57:59;;;;;;;36.13;20.37;;;13.40;99.90;;;;;;5064537;28;20196;-67
2021/04/19 08:00:30;;;;;;;37.47;19.53;;;14.20;99.90;;;;;;5062509;28;20244;-66
2021/04/19 08:03:06;;;;;;;40.83;20.67;;;14.50;99.90;;;;;;5062761;28;20200;-67
2021/04/19 08:05:37;;;;;;;34.53;18.87;;;15.20;99.90;;;;;;5062339;28;20727;-67
2021/04/19 08:08:06;;;;;;;33.97;19.63;;;15.60;99.90;;;;;;5067731;28;20712;-67
2021/04/19 08:10:34;;;;;;;35.17;18.87;;;15.90;99.90;;;;;;5070231;28;20287;-67
2021/04/19 08:13:09;;;;;;;27.03;17.87;;;16.20;99.90;;;;;;5069606;28;20764;-67
2021/04/19 08:15:38;;;;;;;32.80;18.97;;;16.80;99.90;;;;;;5066077;28;20184;-67
2021/04/19 08:18:10;;;;;;;29.83;17.93;;;17.10;99.90;;;;;;5072142;28;20613;-67
2021/04/19 08:20:46;;;;;;;29.20;18.17;;;17.50;99.90;;;;;;5069530;28;20208;-67
2021/04/19 08:23:14;;;;;;;26.60;16.57;;;17.90;99.90;;;;;;5068791;28;20622;-66
2021/04/19 08:25:44;;;;;;;25.17;16.90;;;18.60;99.90;;;;;;5067838;28;20328;-67
2021/04/19 08:28:14;;;;;;;28.93;17.07;;;18.90;99.90;;;;;;5073012;28;20222;-67
2021/04/19 08:30:43;;;;;;;32.30;18.33;;;19.40;99.90;;;;;;5070216;28;20199;-67
2021/04/19 08:33:13;;;;;;;27.03;16.93;;;19.50;99.90;;;;;;5066422;28;20210;-67
2021/04/19 08:35:42;;;;;;;30.47;18.17;;;19.40;99.90;;;;;;5079284;28;20655;-68
2021/04/19 08:38:11;;;;;;;27.40;16.90;;;19.50;99.90;;;;;;5065273;28;20592;-67
2021/04/19 08:40:40;;;;;;;30.97;17.47;;;20.10;99.90;;;;;;5053446;28;20231;-67
2021/04/19 08:43:18;;;;;;;25.77;16.80;;;20.40;99.90;;;;;;5067143;28;20277;-67
2021/04/19 08:45:46;;;;;;;28.57;16.70;;;20.20;99.90;;;;;;5067426;28;20528;-67
2021/04/19 08:48:16;;;;;;;34.47;17.40;;;20.40;99.90;;;;;;5073961;28;20224;-67
2021/04/19 08:50:45;;;;;;;27.60;16.80;;;20.90;99.90;;;;;;5080248;28;20711;-67
2021/04/19 08:53:16;;;;;;;26.40;15.70;;;21.10;99.90;;;;;;5059908;28;20188;-67
2021/04/19 08:55:44;;;;;;;24.80;16.43;;;21.20;99.90;;;;;;5078296;28;20804;-67
2021/04/19 08:58:13;;;;;;;30.83;16.85;;;21.70;99.90;;;;;;5071871;28;20698;-67
2021/04/19 09:00:43;;;;;;;28.10;17.80;;;20.90;99.90;;;;;;5062912;28;20689;-67
2021/04/19 09:03:11;;;;;;;27.40;15.33;;;20.30;99.90;;;;;;5058195;28;20224;-67
2021/04/19 09:05:40;;;;;;;26.50;15.77;;;20.70;99.90;;;;;;5071129;28;20484;-67
2021/04/19 09:08:10;;;;;;;28.38;14.65;;;21.20;99.90;;;;;;5061302;28;20192;-68
2021/04/19 09:10:55;;;;;;;22.92;14.13;;;21.80;99.90;;;;;;5073710;28;20183;-68
2021/04/19 09:13:30;;;;;;;26.38;14.20;;;22.20;99.90;;;;;;5059927;28;20293;-67
2021/04/19 09:16:14;;;;;;;29.70;13.95;;;22.20;99.90;;;;;;5080417;28;20363;-67
2021/04/19 09:18:44;;;;;;;22.90;14.82;;;22.20;99.90;;;;;;5066101;28;20254;-67
2021/04/19 09:21:37;;;;;;;20.73;13.30;;;22.30;99.90;;;;;;5063898;28;20213;-67
2021/04/19 09:24:05;;;;;;;22.17;13.35;;;22.60;99.90;;;;;;5063202;28;20213;-67
2021/04/19 09:26:54;;;;;;;26.75;13.43;;;22.60;98.90;;;;;;5066363;28;20300;-67
2021/04/19 09:29:44;;;;;;;15.63;11.00;;;22.30;99.90;;;;;;5060044;28;20182;-67
2021/04/19 09:32:24;;;;;;;14.73;10.30;;;21.90;97.90;;;;;;5060859;28;20193;-66
2021/04/19 09:35:02;;;;;;;17.63;10.38;;;21.60;97.40;;;;;;5066326;28;20181;-67
2021/04/19 09:37:56;;;;;;;19.20;11.05;;;22.00;99.00;;;;;;5060862;28;20204;-67
2021/04/19 09:40:24;;;;;;;22.15;10.32;;;22.20;98.40;;;;;;5066011;28;20213;-67
2021/04/19 09:43:12;;;;;;;17.45;10.80;;;22.90;96.40;;;;;;5067593;28;20206;-67
2021/04/19 09:45:54;;;;;;;21.05;10.70;;;22.50;96.60;;;;;;5070982;28;20200;-67
2021/04/19 09:48:47;;;;;;;21.45;11.20;;;22.50;96.90;;;;;;5056535;28;20252;-67
2021/04/19 09:51:18;;;;;;;21.30;10.60;;;23.00;97.10;;;;;;5066095;28;20195;-66
2021/04/19 09:53:52;;;;;;;19.15;10.25;;;23.20;95.90;;;;;;5061418;28;20292;-66
2021/04/19 09:56:25;;;;;;;20.30;11.00;;;23.20;95.20;;;;;;5066095;28;20201;-67
2021/04/19 09:58:53;;;;;;;16.67;10.90;;;22.10;95.10;;;;;;5059454;28;20195;-66
2021/04/19 10:01:23;;;;;;;21.97;10.40;;;21.50;96.20;;;;;;5064533;28;20358;-67
2021/04/19 10:03:53;;;;;;;19.35;10.07;;;21.80;96.40;;;;;;5055672;28;20791;-67
2021/04/19 10:06:27;;;;;;;15.57;10.02;;;22.70;95.50;;;;;;5061590;28;20284;-67
2021/04/19 10:08:58;;;;;;;15.50;9.82;;;23.30;95.20;;;;;;5063626;28;20293;-67
2021/04/19 10:11:27;;;;;;;15.65;8.88;;;23.80;95.00;;;;;;5061904;28;20264;-67
2021/04/19 10:13:56;;;;;;;16.10;8.90;;;24.30;93.80;;;;;;5056896;28;20189;-67
2021/04/19 10:16:23;;;;;;;16.98;9.93;;;24.40;93.70;;;;;;5064687;28;20708;-68
2021/04/19 10:18:52;;;;;;;14.73;9.43;;;24.40;93.60;;;;;;5056098;28;20249;-67
2021/04/19 10:21:26;;;;;;;17.88;8.70;;;24.10;92.80;;;;;;5062761;28;20723;-67
2021/04/19 10:23:55;;;;;;;12.63;9.25;;;24.50;92.20;;;;;;5059429;28;20192;-67
2021/04/19 10:26:33;;;;;;;17.65;11.02;;;24.40;92.60;;;;;;5064235;28;20192;-67
2021/04/19 10:29:10;;;;;;;15.90;10.48;;;24.10;91.00;;;;;;5057396;28;20249;-66
2021/04/19 10:31:37;;;;;;;15.45;10.55;;;24.00;92.30;;;;;;5056466;28;20249;-67
2021/04/19 10:34:12;;;;;;;22.27;10.18;;;24.50;92.50;;;;;;5054159;28;20200;-67
2021/04/19 10:36:45;;;;;;;13.57;8.68;;;24.70;92.70;;;;;;5058563;28;20190;-67
2021/04/19 10:39:16;;;;;;;15.70;9.30;;;24.40;91.50;;;;;;5057818;28;20202;-66
2021/04/19 10:41:46;;;;;;;13.43;9.40;;;24.70;91.90;;;;;;5058199;28;20215;-66
2021/04/19 10:44:18;;;;;;;19.70;8.63;;;24.80;91.80;;;;;;5059682;28;20200;-66
2021/04/19 10:46:46;;;;;;;15.45;8.38;;;24.80;90.80;;;;;;5079658;28;20285;-67
2021/04/19 10:49:27;;;;;;;17.27;9.30;;;23.80;91.90;;;;;;5091705;28;20641;-67
2021/04/19 10:51:57;;;;;;;12.68;8.07;;;23.90;90.70;;;;;;5071184;28;20217;-66
2021/04/19 10:54:31;;;;;;;12.27;8.52;;;23.00;92.30;;;;;;5068307;28;20196;-66
2021/04/19 10:57:00;;;;;;;12.77;8.00;;;22.70;90.60;;;;;;5053930;28;20201;-66
2021/04/19 10:59:28;;;;;;;13.85;8.60;;;22.90;93.40;;;;;;5058650;28;20202;-66
2021/04/19 11:02:00;;;;;;;14.30;8.25;;;23.00;91.60;;;;;;5062619;28;20200;-67
2021/04/19 11:04:29;;;;;;;13.70;9.50;;;22.70;91.50;;;;;;5051030;28;20593;-66
2021/04/19 11:07:28;;;;;;;10.97;9.23;;;22.00;92.20;;;;;;5068083;28;20300;-66
2021/04/19 11:10:21;;;;;;;16.67;9.57;;;21.20;92.90;;;;;;5066387;28;20823;-67
2021/04/19 11:13:06;;;;;;;15.43;8.83;;;21.60;94.80;;;;;;5068216;28;20261;-66
2021/04/19 11:15:36;;;;;;;15.07;10.23;;;20.70;93.50;;;;;;5069259;28;20260;-66
2021/04/19 11:18:20;;;;;;;16.63;10.53;;;19.60;93.60;;;;;;5067328;28;20766;-66
2021/04/19 11:20:49;;;;;;;18.40;10.83;;;18.60;94.40;;;;;;5055618;28;20212;-65
2021/04/19 11:23:24;;;;;;;17.10;11.20;;;18.60;97.30;;;;;;5062660;28;20254;-65
2021/04/19 11:25:53;;;;;;;17.87;10.27;;;18.70;97.20;;;;;;5064900;28;20219;-66
2021/04/19 11:28:23;;;;;;;18.30;11.57;;;18.70;96.70;;;;;;5067336;28;20250;-66
2021/04/19 11:30:52;;;;;;;17.90;11.13;;;18.60;96.40;;;;;;5068654;28;20597;-66
2021/04/19 11:33:22;;;;;;;18.10;10.03;;;18.70;95.90;;;;;;5065517;28;20202;-66
2021/04/19 11:35:50;;;;;;;16.40;10.50;;;19.50;98.10;;;;;;5068945;28;20192;-66
2021/04/19 11:38:20;;;;;;;17.10;10.73;;;20.50;96.70;;;;;;5058493;28;20875;-66
2021/04/19 11:40:50;;;;;;;17.83;10.70;;;20.70;94.80;;;;;;5063890;28;20273;-66
2021/04/19 11:43:24;;;;;;;16.50;10.13;;;20.60;94.70;;;;;;5069170;28;20192;-66
2021/04/19 11:45:57;;;;;;;15.57;9.70;;;20.30;95.50;;;;;;5063362;28;20189;-66
2021/04/19 11:48:25;;;;;;;15.37;9.57;;;19.00;94.20;;;;;;5064986;28;20287;-66
2021/04/19 11:50:52;;;;;;;14.80;9.17;;;18.80;96.70;;;;;;5067284;28;20188;-66
2021/04/19 11:53:21;;;;;;;17.73;10.60;;;19.00;96.40;;;;;;5064979;28;20210;-66
2021/04/19 11:55:50;;;;;;;17.43;9.40;;;19.40;94.80;;;;;;5065364;28;20227;-66
2021/04/19 11:58:35;;;;;;;15.63;10.43;;;19.90;96.40;;;;;;5061964;28;20191;-66
2021/04/19 12:01:04;;;;;;;18.07;10.67;;;19.90;95.30;;;;;;5065481;28;20270;-66
2021/04/19 12:03:35;;;;;;;15.83;10.33;;;19.40;96.60;;;;;;5064668;28;20196;-66
2021/04/19 12:06:05;;;;;;;14.00;9.37;;;19.80;95.10;;;;;;5068455;28;20228;-66
2021/04/19 12:08:33;;;;;;;13.37;9.33;;;20.10;94.80;;;;;;5063463;28;20197;-66
2021/04/19 12:11:00;;;;;;;16.70;8.93;;;20.20;95.00;;;;;;5065563;28;20192;-66
2021/04/19 12:13:28;;;;;;;15.17;9.73;;;20.00;94.80;;;;;;5067251;28;20284;-66
2021/04/19 12:15:57;;;;;;;15.57;9.87;;;19.00;94.50;;;;;;5055200;28;20224;-66
2021/04/19 12:18:28;;;;;;;14.17;9.87;;;17.80;94.60;;;;;;5064153;28;20856;-66
2021/04/19 12:21:01;;;;;;;14.03;9.53;;;18.10;96.10;;;;;;5067755;28;20273;-66
2021/04/19 12:23:38;;;;;;;14.10;8.63;;;18.70;94.50;;;;;;5068959;28;20969;-66
2021/04/19 12:26:05;;;;;;;16.47;10.13;;;18.80;96.90;;;;;;5056502;28;20226;-65
2021/04/19 12:28:53;;;;;;;14.20;9.80;;;19.20;96.80;;;;;;5068495;28;20678;-66
2021/04/19 12:31:21;;;;;;;19.37;10.40;;;19.70;96.30;;;;;;5059238;28;20196;-66
2021/04/19 12:33:49;;;;;;;14.13;9.53;;;19.90;96.00;;;;;;5065294;28;20191;-66
2021/04/19 12:36:17;;;;;;;14.77;9.90;;;19.70;96.30;;;;;;5069297;28;20196;-66
2021/04/19 12:38:46;;;;;;;19.23;9.90;;;19.50;95.70;;;;;;5070662;28;20188;-66
2021/04/19 12:41:15;;;;;;;12.93;9.97;;;18.90;96.10;;;;;;5071231;28;20284;-66
2021/04/19 12:43:42;;;;;;;18.47;10.63;;;18.80;96.80;;;;;;5061688;28;20672;-66
2021/04/19 12:46:10;;;;;;;16.73;9.97;;;18.40;96.70;;;;;;5056070;28;20192;-66
2021/04/19 12:48:38;;;;;;;17.70;9.73;;;17.90;99.00;;;;;;5063906;28;20201;-66
2021/04/19 12:51:10;;;;;;;17.90;10.27;;;17.70;98.80;;;;;;5064930;28;20244;-66